Aeroporto :
LOGIN :

Iscrizione | Disclaimer

   EN    FR    IT 

 










Sommario :    VFR   VFR Marginale   IFR   IFR Intensivo   IFR Molto Intensivo
Visibilità : 
Base nubi : 
>= 8 km
>= 3000ft
5 / 8 km
1000 / 3000 ft
1500m / 5 km
500 / 1000 ft
800 / 1500m
200 / 500 ft
< 800m
< 200 ft
Simboli :   Temporali  Nebbia  Neve Forte  Precipitazioni Forti  Vento > 20 kt
SIGMETs :   Varie  Temporali  Ghiacco  Turbolenza  Onda orograficha  Ceneri Vulcaniche






- Altitudine del aeroporto : 364 ft
- Codice IATA : FRA


EDDF - Frankfurt Int.

ULTIMO METAR :
  • 142120Z 02010KT CAVOK 05/01 Q1001 NOSIG

METARs OBSOLETI :
  • 142050Z 02010KT CAVOK 05/01 Q1001 NOSIG
  • 142020Z 02012KT CAVOK 06/01 Q1001 NOSIG
  • 141950Z 02012KT CAVOK 06/01 Q1002 NOSIG
  • 141920Z 02011KT CAVOK 05/01 Q1002 NOSIG
  • 141850Z 03012KT CAVOK 06/01 Q1002 NOSIG
  • 141820Z 03011KT CAVOK 06/01 Q1002 NOSIG

TAF TAF EDDF
Valido dal 14 a 18 ore il 16 a 00 ore UTC


141700Z 1418/1524 05008KT CAVOK
BECMG 1512/1514 20005KT
TEMPO 1519/1523 RA BKN040



MetMap, La meteo Aeronautica in un colpo d'occhio ! - Copyright ORBIFLY Dicembre 2007 - Disclaimer

ORBIFLY MET'MAP TEAM :

Programmazione e sviluppo : Alexandra Zaïnal
Concezione e sviluppo : Baudouin d'Aumeries
Co-Programmazione e sviluppo : Marc-Olivier Méhu
Supporto tecnico e logistico : Manuel Goepfert
Aiuto per la traduzione : Arnaldo La Scala

Contatto : metmap@orbifly.com




FONTI E CREDITI :

   NOAA